createdAt,value
2022-09-22T00:01:46.419Z,101096.00
2022-09-22T00:06:47.722Z,101092.50
2022-09-22T00:11:49.554Z,101090.88
2022-09-22T00:16:51.536Z,101086.78
2022-09-22T00:21:51.362Z,101101.13
2022-09-22T00:26:52.492Z,101096.97
2022-09-22T00:31:52.391Z,101100.75
2022-09-22T00:36:51.672Z,101095.72
2022-09-22T00:41:53.902Z,101096.09
2022-09-22T00:46:54.958Z,101094.66
2022-09-22T00:51:54.201Z,101089.81
2022-09-22T00:56:58.625Z,101089.97
2022-09-22T01:01:57.523Z,101097.16
2022-09-22T01:06:58.084Z,101092.97
2022-09-22T01:11:58.368Z,101087.88
2022-09-22T01:17:04.735Z,101096.00
2022-09-22T01:22:18.863Z,101098.78
2022-09-22T01:27:51.576Z,101098.03
2022-09-22T01:33:15.266Z,101099.25
2022-09-22T01:38:17.641Z,101105.66
2022-09-22T01:43:24.750Z,101101.56
2022-09-22T01:48:29.225Z,101099.06
2022-09-22T01:53:34.100Z,101093.97
2022-09-22T01:58:35.852Z,101094.31
2022-09-22T02:03:41.463Z,101092.75
2022-09-22T02:08:46.204Z,101095.84
2022-09-22T02:13:46.177Z,101086.13
2022-09-22T02:18:51.021Z,101092.34
2022-09-22T02:23:50.601Z,101102.16
2022-09-22T02:28:56.521Z,101107.63
2022-09-22T02:33:57.495Z,101108.53
2022-09-22T02:39:02.597Z,101108.63
2022-09-22T02:44:08.201Z,101107.97
2022-09-22T02:49:13.051Z,101107.44
2022-09-22T02:54:14.930Z,101112.94
2022-09-22T02:59:14.207Z,101115.75
2022-09-22T03:04:14.325Z,101118.47
2022-09-22T03:09:12.997Z,101115.97
2022-09-22T03:14:11.681Z,101117.94
2022-09-22T03:19:10.543Z,101120.81
2022-09-22T03:24:10.824Z,101126.28
2022-09-22T03:29:09.789Z,101123.88
2022-09-22T03:34:08.540Z,101124.97
2022-09-22T03:39:07.290Z,101134.63
2022-09-22T03:44:07.331Z,101123.44
2022-09-22T03:49:06.017Z,101126.41
2022-09-22T03:54:05.033Z,101128.88
2022-09-22T03:59:03.946Z,101133.38
2022-09-22T04:04:04.367Z,101128.88
2022-09-22T04:09:03.067Z,101134.09
2022-09-22T04:14:01.772Z,101126.41
2022-09-22T04:19:00.823Z,101126.22
2022-09-22T04:24:00.992Z,101127.06
2022-09-22T04:28:59.891Z,101131.50
2022-09-22T04:33:58.789Z,101133.38
2022-09-22T04:38:57.747Z,101132.53
2022-09-22T04:43:58.648Z,101131.31
2022-09-22T04:48:57.436Z,101131.13
2022-09-22T04:53:56.123Z,101141.38
2022-09-22T04:58:54.904Z,101145.63
2022-09-22T05:03:55.611Z,101139.16
2022-09-22T05:08:54.313Z,101142.63
2022-09-22T05:13:53.098Z,101139.47
2022-09-22T05:18:52.231Z,101136.50
2022-09-22T05:23:52.371Z,101139.28
2022-09-22T05:28:51.744Z,101144.69
2022-09-22T05:33:50.791Z,101147.59
2022-09-22T05:38:49.576Z,101148.06
2022-09-22T05:43:49.684Z,101158.16
2022-09-22T05:48:48.486Z,101150.31
2022-09-22T05:53:47.225Z,101153.28
2022-09-22T05:58:49.833Z,101170.00
2022-09-22T06:03:51.916Z,101160.66
2022-09-22T06:08:53.304Z,101163.47
2022-09-22T06:13:55.325Z,101162.22
2022-09-22T06:18:56.976Z,101156.75
2022-09-22T06:23:59.630Z,101157.63
2022-09-22T06:29:02.225Z,101168.38
2022-09-22T06:34:04.228Z,101162.47
2022-09-22T06:39:05.796Z,101166.94
2022-09-22T06:44:06.907Z,101172.03
2022-09-22T06:49:05.816Z,101180.94
2022-09-22T06:54:06.674Z,101180.59
2022-09-22T06:59:11.106Z,101192.25
2022-09-22T07:04:10.610Z,101188.72
2022-09-22T07:09:10.373Z,101178.50
2022-09-22T07:14:12.953Z,101186.16
2022-09-22T07:19:11.718Z,101173.34
2022-09-22T07:24:10.445Z,101171.09
2022-09-22T07:29:13.529Z,101173.50
2022-09-22T07:34:12.867Z,101170.41
2022-09-22T07:39:12.687Z,101172.88
2022-09-22T07:44:32.624Z,101175.28
2022-09-22T07:49:31.690Z,101176.75
2022-09-22T07:54:30.832Z,101168.34
2022-09-22T07:59:31.208Z,101172.56
2022-09-22T08:04:32.083Z,101175.72
2022-09-22T08:09:33.594Z,101173.03
2022-09-22T08:14:33.778Z,101175.75
2022-09-22T08:19:34.014Z,101163.94
2022-09-22T08:24:33.057Z,101167.63
2022-09-22T08:29:33.236Z,101162.03
2022-09-22T08:34:34.539Z,101155.84
2022-09-22T08:39:33.196Z,101148.69
2022-09-22T08:44:40.961Z,101141.81
2022-09-22T08:50:04.684Z,101150.63
2022-09-22T08:55:04.434Z,101135.03
2022-09-22T09:00:13.102Z,101133.53
2022-09-22T09:05:46.100Z,101137.16
2022-09-22T09:10:54.469Z,101118.81
2022-09-22T09:16:10.008Z,101113.94
2022-09-22T09:21:15.403Z,101113.13
2022-09-22T09:26:16.283Z,101118.53
2022-09-22T09:31:23.009Z,101108.19
2022-09-22T09:36:23.494Z,101094.94
2022-09-22T09:41:25.483Z,101114.78
2022-09-22T09:46:33.171Z,101103.06
2022-09-22T09:51:39.562Z,101112.16
2022-09-22T09:56:39.029Z,101102.94
2022-09-22T10:01:42.352Z,101093.31
2022-09-22T10:06:41.642Z,101097.44
2022-09-22T10:11:40.595Z,101080.31
2022-09-22T10:16:52.601Z,101073.59
2022-09-22T10:21:51.577Z,101065.66
2022-09-22T10:26:56.362Z,101062.47
2022-09-22T10:32:16.872Z,101071.41
2022-09-22T10:37:17.006Z,101057.53
2022-09-22T10:42:34.422Z,101064.22
2022-09-22T10:47:57.419Z,101052.34
2022-09-22T10:53:03.310Z,101050.69
2022-09-22T10:58:36.714Z,101041.22
2022-09-22T11:04:12.090Z,101037.47
2022-09-22T11:09:37.868Z,101025.44
2022-09-22T11:14:50.141Z,101013.97
2022-09-22T11:20:23.196Z,101025.00
2022-09-22T11:25:40.669Z,101016.53
2022-09-22T11:30:45.552Z,101005.25
2022-09-22T11:36:14.027Z,100994.59
2022-09-22T11:41:31.051Z,101002.00
2022-09-22T11:46:39.142Z,100994.25
2022-09-22T11:51:56.717Z,100984.34
2022-09-22T11:57:00.385Z,100983.66
2022-09-22T12:02:06.798Z,100981.53
2022-09-22T12:07:18.750Z,100972.66
2022-09-22T12:12:22.273Z,100972.81
2022-09-22T12:17:27.401Z,100976.91
2022-09-22T12:22:35.076Z,100966.44
2022-09-22T12:27:36.982Z,100964.44
2022-09-22T12:32:39.467Z,100962.06
2022-09-22T12:37:40.601Z,100958.72
2022-09-22T12:42:41.411Z,100948.59
2022-09-22T12:47:42.407Z,100949.63
2022-09-22T12:53:11.076Z,100937.75
2022-09-22T12:58:43.295Z,100945.13
2022-09-22T13:03:50.292Z,100942.84
2022-09-22T13:09:21.453Z,100941.69
2022-09-22T13:15:01.912Z,100927.75
2022-09-22T13:20:02.328Z,100935.53
2022-09-22T13:25:15.258Z,100934.38
2022-09-22T13:30:15.472Z,100934.97
2022-09-22T13:35:25.581Z,100923.41
2022-09-22T13:40:28.888Z,100929.97
2022-09-22T13:45:30.341Z,100925.22
2022-09-22T13:50:29.113Z,100923.28
2022-09-22T13:55:33.210Z,100915.72
2022-09-22T14:00:49.889Z,100903.00
2022-09-22T14:05:54.595Z,100909.47
2022-09-22T14:10:55.483Z,100903.81
2022-09-22T14:15:55.387Z,100906.34
2022-09-22T14:20:55.946Z,100907.09
2022-09-22T14:25:56.353Z,100903.84
2022-09-22T14:30:55.466Z,100909.59
2022-09-22T14:36:02.033Z,100912.13
2022-09-22T14:41:03.186Z,100916.84
2022-09-22T14:46:08.700Z,100912.94
2022-09-22T14:51:16.119Z,100915.41
2022-09-22T14:56:20.358Z,100916.19
2022-09-22T15:01:40.629Z,100916.25
2022-09-22T15:06:40.202Z,100916.94
2022-09-22T15:11:51.912Z,100918.19
2022-09-22T15:16:50.845Z,100921.97
2022-09-22T15:21:51.451Z,100922.03
2022-09-22T15:26:51.601Z,100919.47
2022-09-22T15:31:50.460Z,100935.00
2022-09-22T15:36:50.152Z,100929.88
2022-09-22T15:41:49.281Z,100930.84
2022-09-22T15:46:54.540Z,100933.22
2022-09-22T15:51:54.805Z,100946.63
2022-09-22T15:56:55.601Z,100946.09
2022-09-22T16:01:57.275Z,100941.00
2022-09-22T16:06:59.443Z,100945.78
2022-09-22T16:11:58.202Z,100946.75
2022-09-22T16:16:58.352Z,100956.56
2022-09-22T16:21:57.161Z,100954.66
2022-09-22T16:26:56.233Z,100955.00
2022-09-22T16:31:55.092Z,100955.53
2022-09-22T16:36:55.339Z,100965.16
2022-09-22T16:41:54.208Z,100965.53
2022-09-22T16:46:53.089Z,100979.34
2022-09-22T16:51:54.351Z,100984.28
2022-09-22T16:56:55.089Z,100989.09
2022-09-22T17:01:54.585Z,100989.56
2022-09-22T17:06:54.921Z,100989.88
2022-09-22T17:11:55.209Z,100999.78
2022-09-22T17:16:56.585Z,100996.41
2022-09-22T17:21:57.205Z,101000.06
2022-09-22T17:26:58.796Z,101011.28
2022-09-22T17:32:00.093Z,101014.47
2022-09-22T17:36:59.003Z,101028.91
2022-09-22T17:41:59.343Z,101027.22
2022-09-22T17:47:15.906Z,101029.44
2022-09-22T17:52:34.129Z,101032.50
2022-09-22T17:57:36.167Z,101046.13
2022-09-22T18:02:37.059Z,101046.84
2022-09-22T18:07:36.826Z,101049.84
2022-09-22T18:12:37.021Z,101046.94
2022-09-22T18:17:41.426Z,101043.19
2022-09-22T18:22:41.075Z,101046.53
2022-09-22T18:27:44.553Z,101047.25
2022-09-22T18:32:46.221Z,101045.44
2022-09-22T18:37:51.242Z,101049.13
2022-09-22T18:43:03.577Z,101049.97
2022-09-22T18:48:04.696Z,101050.53
2022-09-22T18:53:08.300Z,101043.16
2022-09-22T18:58:11.991Z,101043.09
2022-09-22T19:03:15.039Z,101053.91
2022-09-22T19:08:18.919Z,101053.06
2022-09-22T19:13:25.894Z,101079.72
2022-09-22T19:18:28.338Z,101085.75
2022-09-22T19:23:36.318Z,101063.38
2022-09-22T19:28:37.825Z,101052.84
2022-09-22T19:33:40.178Z,101044.53
2022-09-22T19:38:40.076Z,101044.78
2022-09-22T19:43:40.530Z,101060.50
2022-09-22T19:48:40.357Z,101066.06
2022-09-22T19:53:39.258Z,101067.25
2022-09-22T19:58:43.197Z,101074.44
2022-09-22T20:03:42.175Z,101075.63
2022-09-22T20:08:42.443Z,101064.81
2022-09-22T20:14:00.068Z,101081.13
2022-09-22T20:19:00.202Z,101074.63
2022-09-22T20:23:59.855Z,101093.38
2022-09-22T20:29:00.397Z,101116.38
2022-09-22T20:33:59.474Z,101117.88
2022-09-22T20:39:02.177Z,101116.38
2022-09-22T20:44:03.757Z,101127.53
2022-09-22T20:49:04.202Z,101118.22
2022-09-22T20:54:03.205Z,101135.25
2022-09-22T20:59:03.686Z,101127.47
2022-09-22T21:04:03.057Z,101130.91
2022-09-22T21:09:19.248Z,101120.84
2022-09-22T21:14:19.488Z,101117.25
2022-09-22T21:19:18.369Z,101125.97
2022-09-22T21:24:17.268Z,101123.06
2022-09-22T21:29:16.110Z,101129.34
2022-09-22T21:34:16.995Z,101131.53
2022-09-22T21:39:15.810Z,101122.25
2022-09-22T21:44:14.803Z,101117.34
2022-09-22T21:49:13.585Z,101122.81
2022-09-22T21:54:15.506Z,101125.06
2022-09-22T21:59:15.270Z,101119.78
2022-09-22T22:04:15.356Z,101125.81
2022-09-22T22:09:18.470Z,101113.91
2022-09-22T22:14:19.338Z,101120.84
2022-09-22T22:19:20.348Z,101114.88
2022-09-22T22:24:36.998Z,101116.09
2022-09-22T22:29:36.511Z,101125.22
2022-09-22T22:34:35.538Z,101122.28
2022-09-22T22:39:35.713Z,101124.09
2022-09-22T22:44:35.294Z,101123.06
2022-09-22T22:49:34.031Z,101123.47
2022-09-22T22:54:32.799Z,101112.84
2022-09-22T22:59:33.075Z,101119.38
2022-09-22T23:04:32.257Z,101106.81
2022-09-22T23:09:31.045Z,101103.41
2022-09-22T23:14:30.142Z,101102.19
2022-09-22T23:19:30.262Z,101106.81
2022-09-22T23:24:29.018Z,101097.25
2022-09-22T23:29:27.738Z,101091.31
2022-09-22T23:34:26.575Z,101083.06
2022-09-22T23:39:26.929Z,101081.75
2022-09-22T23:44:26.021Z,101076.38
2022-09-22T23:49:25.044Z,101071.25
2022-09-22T23:54:23.780Z,101072.00
2022-09-22T23:59:23.958Z,101068.34
